Time;durP1;ratioP1;P1;durP2;ratioP2;P2;SDS_P1;SDS_P2;PMS_P1;PMS_P2;Temp;Humidity;BMP_temperature;BMP_pressure;BME280_temperature;BME280_humidity;BME280_pressure;Samples;Min_cycle;Max_cycle;Signal;HPM_P1;HPM_P2
2021/08/11 00:01:22;;;;;;;6.67;5.83;;;15.90;1.00;;;;;;5085922;28;20578;-76
2021/08/11 00:03:50;;;;;;;6.50;5.90;;;15.90;1.00;;;;;;5080833;28;20447;-77
2021/08/11 00:06:23;;;;;;;6.57;5.97;;;15.80;1.00;;;;;;5083475;28;20437;-77
2021/08/11 00:08:52;;;;;;;6.50;5.80;;;15.80;1.00;;;;;;5083625;28;21227;-76
2021/08/11 00:11:20;;;;;;;5.90;5.30;;;15.80;1.00;;;;;;5066158;28;21406;-76
2021/08/11 00:13:48;;;;;;;5.87;5.07;;;15.80;1.00;;;;;;5086487;28;20507;-77
2021/08/11 00:16:15;;;;;;;7.80;5.33;;;15.70;1.00;;;;;;5086136;28;21751;-77
2021/08/11 00:18:41;;;;;;;5.20;4.70;;;15.70;1.00;;;;;;5084980;28;20457;-77
2021/08/11 00:21:08;;;;;;;7.40;5.30;;;15.70;1.00;;;;;;5065078;28;21016;-75
2021/08/11 00:23:35;;;;;;;5.70;5.20;;;15.70;1.00;;;;;;5083605;28;20998;-77
2021/08/11 00:26:02;;;;;;;5.27;4.77;;;15.70;1.00;;;;;;5086583;28;20436;-78
2021/08/11 00:28:28;;;;;;;6.00;5.40;;;15.80;1.00;;;;;;5087340;28;20555;-76
2021/08/11 00:30:57;;;;;;;7.00;5.50;;;15.80;1.00;;;;;;5097624;28;20443;-76
2021/08/11 00:33:23;;;;;;;6.40;5.70;;;15.80;1.00;;;;;;5079283;28;20496;-76
2021/08/11 00:35:50;;;;;;;5.97;5.37;;;15.80;1.00;;;;;;5081321;28;21550;-77
2021/08/11 00:38:20;;;;;;;5.43;4.70;;;15.70;1.00;;;;;;5087958;28;20487;-77
2021/08/11 00:40:47;;;;;;;6.50;5.10;;;15.80;1.00;;;;;;5085301;28;21263;-78
2021/08/11 00:43:14;;;;;;;6.10;4.70;;;15.80;1.00;;;;;;5079914;28;21221;-75
2021/08/11 00:45:41;;;;;;;6.13;4.77;;;15.80;1.00;;;;;;5088351;28;20495;-76
2021/08/11 00:48:11;;;;;;;5.37;4.50;;;15.80;1.00;;;;;;5079121;28;20402;-76
2021/08/11 00:50:39;;;;;;;5.33;4.83;;;15.80;1.00;;;;;;5084362;28;21324;-77
2021/08/11 00:53:07;;;;;;;5.83;5.20;;;15.80;1.00;;;;;;5078036;28;21231;-77
2021/08/11 00:55:37;;;;;;;6.00;4.87;;;15.80;1.00;;;;;;5084173;28;20437;-75
2021/08/11 00:58:08;;;;;;;6.03;5.43;;;15.70;1.00;;;;;;5073840;28;20450;-76
2021/08/11 01:00:37;;;;;;;6.43;5.80;;;15.70;1.00;;;;;;5080839;28;20459;-76
2021/08/11 01:03:07;;;;;;;6.30;5.33;;;15.60;1.00;;;;;;5096109;28;20425;-75
2021/08/11 01:05:36;;;;;;;6.77;5.77;;;15.60;1.00;;;;;;5067078;28;20498;-74
2021/08/11 01:08:05;;;;;;;5.90;5.30;;;15.50;1.00;;;;;;5060103;28;20964;-78
2021/08/11 01:10:32;;;;;;;7.07;5.70;;;15.60;1.00;;;;;;5074972;28;20492;-76
2021/08/11 01:12:59;;;;;;;5.60;5.10;;;15.60;1.00;;;;;;5086189;28;20417;-78
2021/08/11 01:15:27;;;;;;;7.97;6.00;;;15.50;1.00;;;;;;5075923;28;20440;-76
2021/08/11 01:17:54;;;;;;;5.83;5.23;;;15.50;1.00;;;;;;5085017;28;20553;-77
2021/08/11 01:20:21;;;;;;;6.73;6.03;;;15.60;1.00;;;;;;5081690;28;20468;-77
2021/08/11 01:22:55;;;;;;;8.23;7.43;;;15.60;1.00;;;;;;5082061;28;20535;-75
2021/08/11 01:25:28;;;;;;;9.43;7.13;;;15.60;1.00;;;;;;5075180;28;20530;-78
2021/08/11 01:28:33;;;;;;;8.10;7.27;;;15.60;1.00;;;;;;5077705;28;20464;-76
2021/08/11 01:31:09;;;;;;;7.60;6.80;;;15.50;1.00;;;;;;5075412;28;20530;-75
2021/08/11 01:33:49;;;;;;;7.93;7.13;;;15.50;1.00;;;;;;5079981;28;20435;-75
2021/08/11 01:36:21;;;;;;;8.77;7.73;;;15.50;1.00;;;;;;5084379;28;20568;-75
2021/08/11 01:38:57;;;;;;;8.53;7.63;;;15.50;1.00;;;;;;5080034;28;20440;-77
2021/08/11 01:41:29;;;;;;;8.27;7.40;;;15.50;1.00;;;;;;5079166;28;20452;-75
2021/08/11 01:43:58;;;;;;;9.20;8.30;;;15.50;1.00;;;;;;5084321;28;20514;-76
2021/08/11 01:46:26;;;;;;;10.03;8.20;;;15.50;1.00;;;;;;5083131;28;20445;-77
2021/08/11 01:48:58;;;;;;;10.13;9.00;;;15.50;1.00;;;;;;5088329;28;20514;-75
2021/08/11 01:51:25;;;;;;;9.03;8.13;;;15.50;1.00;;;;;;5094748;28;20445;-78
2021/08/11 01:53:52;;;;;;;8.53;7.73;;;15.50;1.00;;;;;;5080133;28;20463;-76
2021/08/11 01:56:20;;;;;;;8.73;7.93;;;15.40;1.00;;;;;;5082249;28;20532;-78
2021/08/11 01:58:47;;;;;;;9.90;8.90;;;15.40;1.00;;;;;;5078776;28;20550;-76
2021/08/11 02:01:14;;;;;;;10.73;8.93;;;15.40;1.00;;;;;;5082877;28;20576;-77
2021/08/11 02:03:42;;;;;;;9.97;8.97;;;15.30;1.00;;;;;;5080536;28;21075;-76
2021/08/11 02:06:10;;;;;;;9.83;8.83;;;15.30;1.00;;;;;;5085884;28;20447;-76
2021/08/11 02:08:41;;;;;;;9.23;8.43;;;15.30;1.00;;;;;;5081830;28;20443;-76
2021/08/11 02:11:09;;;;;;;10.27;8.70;;;15.20;1.00;;;;;;5090566;28;20932;-78
2021/08/11 02:13:38;;;;;;;9.37;8.30;;;15.20;1.00;;;;;;5102633;27;20722;-76
2021/08/11 02:16:05;;;;;;;9.73;8.73;;;15.20;1.00;;;;;;5083853;28;20511;-76
2021/08/11 02:18:32;;;;;;;8.60;7.60;;;15.20;1.00;;;;;;5070454;28;20472;-76
2021/08/11 02:20:58;;;;;;;10.10;9.10;;;15.20;1.00;;;;;;5081658;28;20444;-77
2021/08/11 02:23:26;;;;;;;10.00;9.10;;;15.20;1.00;;;;;;5085669;28;20533;-77
2021/08/11 02:26:00;;;;;;;9.73;8.83;;;15.20;1.00;;;;;;5079962;28;20427;-77
2021/08/11 02:28:37;;;;;;;9.50;8.50;;;15.20;1.00;;;;;;5081386;28;20401;-74
2021/08/11 02:31:09;;;;;;;10.23;9.10;;;15.20;1.00;;;;;;5061974;28;20469;-77
2021/08/11 02:33:42;;;;;;;10.63;8.33;;;15.20;1.00;;;;;;5081441;28;20444;-76
2021/08/11 02:36:16;;;;;;;9.63;8.73;;;15.20;1.00;;;;;;5087945;28;20525;-76
2021/08/11 02:38:48;;;;;;;8.80;8.00;;;15.10;1.00;;;;;;5084898;28;20467;-76
2021/08/11 02:41:18;;;;;;;10.27;9.37;;;15.10;1.00;;;;;;5080589;28;21685;-77
2021/08/11 02:43:50;;;;;;;11.30;9.20;;;15.10;1.00;;;;;;5083866;28;20468;-76
2021/08/11 02:46:23;;;;;;;10.00;8.63;;;15.10;1.00;;;;;;5087859;28;20456;-76
2021/08/11 02:48:56;;;;;;;8.67;7.80;;;15.10;1.00;;;;;;5085150;28;20436;-75
2021/08/11 02:51:27;;;;;;;10.47;9.47;;;15.10;1.00;;;;;;5068439;28;20452;-76
2021/08/11 02:54:00;;;;;;;10.23;9.03;;;15.10;1.00;;;;;;5091241;28;20412;-75
2021/08/11 02:56:28;;;;;;;11.50;10.13;;;15.10;1.00;;;;;;5086023;28;20509;-76
2021/08/11 02:58:56;;;;;;;10.23;8.80;;;15.10;1.00;;;;;;5080420;28;20444;-77
2021/08/11 03:01:23;;;;;;;9.10;8.30;;;15.00;1.00;;;;;;5082630;28;20471;-76
2021/08/11 03:03:50;;;;;;;9.87;8.97;;;15.10;1.00;;;;;;5060937;28;20445;-76
2021/08/11 03:06:17;;;;;;;10.63;9.50;;;15.10;1.00;;;;;;5079463;28;20451;-77
2021/08/11 03:08:43;;;;;;;9.97;8.97;;;15.10;1.00;;;;;;5082503;28;20563;-77
2021/08/11 03:11:12;;;;;;;10.83;9.73;;;15.00;1.00;;;;;;5081567;28;20454;-77
2021/08/11 03:13:42;;;;;;;12.80;11.43;;;15.00;1.00;;;;;;5081194;28;20491;-76
2021/08/11 03:16:09;;;;;;;11.43;10.20;;;15.00;1.00;;;;;;5089376;28;21025;-77
2021/08/11 03:18:36;;;;;;;11.00;10.00;;;15.00;1.00;;;;;;5086011;28;20533;-78
2021/08/11 03:21:04;;;;;;;11.43;10.30;;;15.10;1.00;;;;;;5091725;28;20435;-77
2021/08/11 03:23:31;;;;;;;10.93;9.93;;;15.00;1.00;;;;;;5096152;28;20507;-76
2021/08/11 03:25:58;;;;;;;11.13;9.90;;;15.00;1.00;;;;;;5101100;28;20653;-74
2021/08/11 03:28:30;;;;;;;11.30;10.20;;;15.00;1.00;;;;;;5099342;28;20431;-77
2021/08/11 03:31:07;;;;;;;11.90;10.70;;;15.00;1.00;;;;;;5101314;28;20443;-75
2021/08/11 03:33:34;;;;;;;12.30;11.10;;;15.00;1.00;;;;;;5102412;28;20558;-77
2021/08/11 03:36:01;;;;;;;14.40;11.20;;;15.00;1.00;;;;;;5087056;28;20420;-77
2021/08/11 03:38:28;;;;;;;13.23;12.03;;;15.00;1.00;;;;;;5089172;28;20506;-78
2021/08/11 03:40:55;;;;;;;12.90;11.57;;;15.00;1.00;;;;;;5084721;28;20467;-78
2021/08/11 03:43:21;;;;;;;11.90;10.70;;;15.00;1.00;;;;;;5087555;28;20447;-77
2021/08/11 03:45:49;;;;;;;12.73;11.43;;;15.00;1.00;;;;;;5089986;28;21405;-76
2021/08/11 03:48:16;;;;;;;12.83;11.23;;;15.00;1.00;;;;;;5080826;28;20448;-77
2021/08/11 03:50:43;;;;;;;13.60;12.30;;;15.00;1.00;;;;;;5086552;28;20547;-77
2021/08/11 03:53:10;;;;;;;11.67;10.67;;;15.00;1.00;;;;;;5089199;28;20560;-77
2021/08/11 03:55:36;;;;;;;12.87;11.47;;;15.00;1.00;;;;;;5084445;28;20419;-76
2021/08/11 03:58:04;;;;;;;13.10;11.70;;;15.00;1.00;;;;;;5078380;28;20474;-76
2021/08/11 04:00:31;;;;;;;12.47;11.17;;;15.00;1.00;;;;;;5077897;28;20475;-78
2021/08/11 04:02:59;;;;;;;14.27;12.37;;;15.00;1.00;;;;;;5078037;28;20531;-74
2021/08/11 04:05:26;;;;;;;12.50;11.30;;;15.00;1.00;;;;;;5080820;28;21746;-77
2021/08/11 04:07:53;;;;;;;16.57;11.83;;;15.00;1.00;;;;;;5060521;28;20991;-77
2021/08/11 04:10:19;;;;;;;14.50;13.03;;;15.00;1.00;;;;;;5059605;28;20496;-77
2021/08/11 04:12:46;;;;;;;13.37;11.10;;;15.00;1.00;;;;;;5080712;28;20445;-76
2021/08/11 04:15:13;;;;;;;13.40;12.00;;;15.00;1.00;;;;;;5076018;28;20441;-76
2021/08/11 04:17:40;;;;;;;15.47;13.97;;;15.00;1.00;;;;;;5078379;28;20475;-77
2021/08/11 04:20:11;;;;;;;15.83;14.20;;;15.00;1.00;;;;;;5067386;28;20989;-75
2021/08/11 04:22:38;;;;;;;13.93;12.53;;;15.10;1.00;;;;;;5079182;28;20523;-76
2021/08/11 04:25:06;;;;;;;15.30;13.80;;;15.10;1.00;;;;;;5081066;28;20456;-77
2021/08/11 04:27:33;;;;;;;13.87;12.43;;;15.10;1.00;;;;;;5091356;28;20449;-76
2021/08/11 04:30:00;;;;;;;15.40;12.63;;;15.20;1.00;;;;;;5092819;28;20478;-75
2021/08/11 04:32:26;;;;;;;14.40;12.40;;;15.20;1.00;;;;;;5069468;28;20461;-77
2021/08/11 04:34:53;;;;;;;16.60;15.00;;;15.20;1.00;;;;;;5088157;28;20468;-76
2021/08/11 04:37:21;;;;;;;13.60;12.30;;;15.20;1.00;;;;;;5091294;28;20503;-76
2021/08/11 04:39:49;;;;;;;17.90;14.70;;;15.30;1.00;;;;;;5086693;28;20426;-77
2021/08/11 04:42:18;;;;;;;18.50;13.63;;;15.30;1.00;;;;;;5083524;28;20448;-78
2021/08/11 04:44:45;;;;;;;20.40;16.77;;;15.30;1.00;;;;;;5083536;28;20463;-79
2021/08/11 04:47:11;;;;;;;17.60;15.80;;;15.30;1.00;;;;;;5098299;28;20497;-76
2021/08/11 04:49:38;;;;;;;17.30;14.90;;;15.30;1.00;;;;;;5098179;28;20486;-73
2021/08/11 04:52:05;;;;;;;16.10;14.40;;;15.30;1.00;;;;;;5081800;28;20447;-72
2021/08/11 04:54:34;;;;;;;14.97;13.47;;;15.40;1.00;;;;;;5080847;28;20455;-76
2021/08/11 04:57:00;;;;;;;15.67;14.07;;;15.40;1.00;;;;;;5078187;28;20462;-73
2021/08/11 04:59:30;;;;;;;15.37;13.63;;;15.40;1.00;;;;;;5064411;28;20436;-76
2021/08/11 05:01:57;;;;;;;17.70;13.60;;;15.40;1.00;;;;;;5082767;28;20468;-76
2021/08/11 05:04:25;;;;;;;15.57;14.07;;;15.40;1.00;;;;;;5093781;28;20432;-74
2021/08/11 05:06:51;;;;;;;17.67;15.87;;;15.40;1.00;;;;;;5094274;28;20448;-74
2021/08/11 05:09:18;;;;;;;15.30;13.80;;;15.50;1.00;;;;;;5101750;27;20449;-73
2021/08/11 05:11:47;;;;;;;16.23;14.13;;;15.50;1.00;;;;;;5099410;28;20409;-73
2021/08/11 05:14:14;;;;;;;15.60;13.97;;;15.60;1.00;;;;;;5101091;28;20409;-74
2021/08/11 05:16:41;;;;;;;16.80;15.10;;;15.60;1.00;;;;;;5102151;28;20426;-73
2021/08/11 05:19:09;;;;;;;15.60;14.00;;;15.60;1.00;;;;;;5104666;27;20477;-72
2021/08/11 05:21:37;;;;;;;15.93;13.63;;;15.60;1.00;;;;;;5104003;27;20559;-75
2021/08/11 05:24:04;;;;;;;15.70;14.20;;;15.70;1.00;;;;;;5109865;27;20421;-72
2021/08/11 05:26:31;;;;;;;15.50;13.90;;;15.70;1.00;;;;;;5103709;28;20445;-74
2021/08/11 05:29:02;;;;;;;16.37;14.60;;;15.80;1.00;;;;;;5100588;28;20425;-72
2021/08/11 05:31:30;;;;;;;16.97;15.20;;;15.90;1.00;;;;;;5103599;28;20423;-73
2021/08/11 05:33:58;;;;;;;16.97;15.20;;;15.90;1.00;;;;;;5109442;28;20460;-73
2021/08/11 05:36:25;;;;;;;18.20;15.23;;;16.00;1.00;;;;;;5105762;27;20462;-74
2021/08/11 05:38:52;;;;;;;17.23;15.43;;;16.00;1.00;;;;;;5100967;28;20445;-73
2021/08/11 05:41:19;;;;;;;16.77;14.97;;;16.10;1.00;;;;;;5102428;28;20423;-73
2021/08/11 05:43:46;;;;;;;17.47;15.10;;;16.20;1.00;;;;;;5101367;28;20438;-75
2021/08/11 05:46:14;;;;;;;17.27;14.23;;;16.20;1.00;;;;;;5107745;27;20441;-73
2021/08/11 05:48:41;;;;;;;16.07;14.37;;;16.30;1.00;;;;;;5103158;28;20409;-75
2021/08/11 05:51:08;;;;;;;17.07;15.47;;;16.40;1.00;;;;;;5101825;27;20423;-74
2021/08/11 05:53:35;;;;;;;18.07;16.23;;;16.50;1.00;;;;;;5102708;27;20425;-74
2021/08/11 05:56:02;;;;;;;16.10;14.60;;;16.50;1.00;;;;;;5098452;27;20411;-74
2021/08/11 05:58:29;;;;;;;15.70;14.10;;;16.60;1.00;;;;;;5101339;28;20461;-76
2021/08/11 06:00:55;;;;;;;16.07;14.47;;;16.60;1.00;;;;;;5107710;27;20417;-76
2021/08/11 06:03:25;;;;;;;16.27;14.67;;;16.70;1.00;;;;;;5087209;28;20457;-75
2021/08/11 06:05:52;;;;;;;15.57;14.00;;;16.70;1.00;;;;;;5109593;27;20428;-72
2021/08/11 06:08:18;;;;;;;17.67;15.77;;;16.70;1.00;;;;;;5102212;28;20428;-75
2021/08/11 06:10:45;;;;;;;17.43;15.73;;;16.80;1.00;;;;;;5099753;27;20454;-75
2021/08/11 06:13:12;;;;;;;17.70;15.93;;;16.90;1.00;;;;;;5096853;28;20425;-73
2021/08/11 06:15:38;;;;;;;17.63;15.83;;;16.90;1.00;;;;;;5098592;27;20430;-73
2021/08/11 06:18:05;;;;;;;17.77;16.07;;;17.00;1.00;;;;;;5090584;28;21062;-73
2021/08/11 06:20:33;;;;;;;18.17;16.27;;;17.00;1.00;;;;;;5079799;28;20513;-76
2021/08/11 06:23:00;;;;;;;16.60;14.70;;;17.10;1.00;;;;;;5081516;28;21400;-75
2021/08/11 06:25:27;;;;;;;17.60;14.90;;;17.10;1.00;;;;;;5073293;28;20462;-72
2021/08/11 06:27:54;;;;;;;16.23;14.63;;;17.20;1.00;;;;;;5087761;28;20540;-73
2021/08/11 06:30:21;;;;;;;16.43;14.70;;;17.30;1.00;;;;;;5085470;28;20805;-75
2021/08/11 06:32:49;;;;;;;20.43;15.80;;;17.40;1.00;;;;;;5083365;28;20437;-75
2021/08/11 06:35:15;;;;;;;17.50;15.77;;;17.50;1.00;;;;;;5082865;28;22177;-75
2021/08/11 06:37:45;;;;;;;17.57;15.80;;;17.50;1.00;;;;;;5094006;28;20452;-74
2021/08/11 06:40:13;;;;;;;14.77;13.27;;;17.60;1.00;;;;;;5088944;28;20984;-74
2021/08/11 06:42:40;;;;;;;14.50;13.00;;;17.70;1.00;;;;;;5083457;28;20438;-74
2021/08/11 06:45:08;;;;;;;14.87;11.80;;;17.70;1.00;;;;;;5086305;28;20426;-75
2021/08/11 06:47:36;;;;;;;16.60;14.33;;;17.70;1.00;;;;;;5077257;28;20450;-74
2021/08/11 06:50:03;;;;;;;13.97;12.57;;;17.80;1.00;;;;;;5092631;28;20419;-75
2021/08/11 06:52:33;;;;;;;11.77;10.13;;;17.80;1.00;;;;;;5081567;28;21115;-73
2021/08/11 06:55:03;;;;;;;11.40;10.17;;;17.80;1.00;;;;;;5084794;28;20514;-74
2021/08/11 06:57:30;;;;;;;12.93;10.80;;;17.90;1.00;;;;;;5063099;28;20458;-75
2021/08/11 06:59:56;;;;;;;11.77;10.63;;;18.00;1.00;;;;;;5081577;28;20488;-77
2021/08/11 07:02:23;;;;;;;11.77;10.57;;;18.10;1.00;;;;;;5085166;28;20480;-78
2021/08/11 07:04:50;;;;;;;12.77;11.33;;;18.10;1.00;;;;;;5073705;28;20516;-75
2021/08/11 07:07:17;;;;;;;13.13;10.00;;;18.10;1.00;;;;;;5073260;28;21232;-77
2021/08/11 07:09:44;;;;;;;13.10;11.13;;;18.20;1.00;;;;;;5077589;28;20454;-77
2021/08/11 07:12:12;;;;;;;13.13;11.83;;;18.40;1.00;;;;;;5076120;28;20453;-76
2021/08/11 07:14:39;;;;;;;12.27;11.07;;;18.60;1.00;;;;;;5076126;28;20459;-78
2021/08/11 07:17:05;;;;;;;12.97;11.50;;;18.80;1.00;;;;;;5079332;28;20415;-76
2021/08/11 07:19:33;;;;;;;17.20;12.47;;;18.90;1.00;;;;;;5076983;28;20415;-78
2021/08/11 07:22:00;;;;;;;12.57;11.37;;;19.00;1.00;;;;;;5074983;28;20458;-77
2021/08/11 07:24:27;;;;;;;13.17;11.97;;;19.10;1.00;;;;;;5075357;28;20452;-78
2021/08/11 07:26:53;;;;;;;12.00;10.80;;;19.20;1.00;;;;;;5057598;28;20459;-77
2021/08/11 07:29:22;;;;;;;12.20;10.50;;;19.20;1.00;;;;;;5075238;28;20512;-77
2021/08/11 07:31:49;;;;;;;10.60;9.60;;;19.20;1.00;;;;;;5074922;28;20415;-77
2021/08/11 07:34:15;;;;;;;10.03;9.00;;;19.20;1.00;;;;;;5084700;28;20478;-78
2021/08/11 07:36:42;;;;;;;12.90;11.43;;;19.30;1.00;;;;;;5059190;28;20431;-76
2021/08/11 07:39:09;;;;;;;12.23;10.97;;;19.40;1.00;;;;;;5079092;28;21214;-75
2021/08/11 07:41:36;;;;;;;10.57;9.57;;;19.50;1.00;;;;;;5054962;28;20551;-76
2021/08/11 07:44:03;;;;;;;11.40;10.40;;;19.50;1.00;;;;;;5073371;28;21320;-76
2021/08/11 07:46:31;;;;;;;13.10;11.80;;;19.50;1.00;;;;;;5073440;28;20554;-76
2021/08/11 07:48:59;;;;;;;13.47;12.27;;;19.70;1.00;;;;;;5076989;28;20517;-75
2021/08/11 07:51:26;;;;;;;12.43;11.40;;;19.80;1.00;;;;;;5078323;28;20529;-77
2021/08/11 07:53:53;;;;;;;12.97;11.87;;;19.80;1.00;;;;;;5078658;28;20442;-77
2021/08/11 07:56:20;;;;;;;12.20;11.10;;;19.80;1.00;;;;;;5062823;28;20452;-77
2021/08/11 07:58:48;;;;;;;12.83;11.67;;;19.90;1.00;;;;;;5095842;28;20411;-76
2021/08/11 08:01:14;;;;;;;14.27;12.87;;;20.00;1.00;;;;;;5086733;28;20459;-77
2021/08/11 08:03:43;;;;;;;12.60;11.47;;;20.30;1.00;;;;;;5087781;28;20426;-78
2021/08/11 08:06:09;;;;;;;12.50;11.40;;;20.40;1.00;;;;;;5106449;27;20435;-77
2021/08/11 08:08:36;;;;;;;11.40;10.40;;;20.30;1.00;;;;;;5101727;28;20448;-77
2021/08/11 08:11:03;;;;;;;10.30;9.40;;;20.30;1.00;;;;;;5097623;28;20488;-77
2021/08/11 08:13:31;;;;;;;9.80;8.80;;;20.40;1.00;;;;;;5096391;28;20428;-78
2021/08/11 08:15:59;;;;;;;10.33;9.40;;;20.60;1.00;;;;;;5081674;28;20428;-75
2021/08/11 08:18:26;;;;;;;10.03;9.10;;;20.70;1.00;;;;;;5104765;28;20522;-77
2021/08/11 08:20:56;;;;;;;8.70;7.90;;;20.90;1.00;;;;;;5101015;28;20447;-76
2021/08/11 08:23:25;;;;;;;9.57;8.77;;;21.00;1.00;;;;;;5096939;28;20469;-78
2021/08/11 08:25:52;;;;;;;15.27;13.70;;;21.10;1.00;;;;;;5088695;28;20469;-76
2021/08/11 08:28:19;;;;;;;9.97;8.93;;;21.30;1.00;;;;;;5098526;28;20414;-76
2021/08/11 08:30:48;;;;;;;9.00;8.20;;;21.20;1.00;;;;;;5101512;28;20482;-78
2021/08/11 08:33:16;;;;;;;9.07;8.23;;;21.20;1.00;;;;;;5081087;28;20445;-75
2021/08/11 08:35:42;;;;;;;9.33;8.53;;;21.10;1.00;;;;;;5100429;28;20400;-76
2021/08/11 08:38:12;;;;;;;9.47;7.20;;;21.00;1.00;;;;;;5102023;28;21001;-76
2021/08/11 08:40:44;;;;;;;9.57;8.57;;;21.10;1.00;;;;;;5084527;28;20418;-79
2021/08/11 08:43:10;;;;;;;9.63;8.73;;;21.30;1.00;;;;;;5102519;27;20424;-77
2021/08/11 08:45:38;;;;;;;8.30;7.57;;;21.30;1.00;;;;;;5101691;27;20506;-76
2021/08/11 08:48:06;;;;;;;8.73;8.00;;;21.40;1.00;;;;;;5088828;28;20394;-78
2021/08/11 08:50:34;;;;;;;8.17;7.37;;;21.60;1.00;;;;;;5097879;27;20463;-76
2021/08/11 08:53:03;;;;;;;8.77;7.13;;;21.80;1.00;;;;;;5083342;28;20443;-76
2021/08/11 08:55:32;;;;;;;7.30;6.67;;;21.90;1.00;;;;;;5102127;28;20445;-77
2021/08/11 08:57:59;;;;;;;7.23;6.53;;;22.00;1.00;;;;;;5098691;28;20422;-78
2021/08/11 09:00:26;;;;;;;7.63;6.93;;;22.20;1.00;;;;;;5100645;28;20418;-76
2021/08/11 09:02:52;;;;;;;8.67;7.77;;;22.40;1.00;;;;;;5101334;28;20492;-73
2021/08/11 09:05:19;;;;;;;8.03;7.33;;;22.40;1.00;;;;;;5097294;28;20537;-75
2021/08/11 09:07:48;;;;;;;8.10;7.07;;;22.40;1.00;;;;;;5093995;28;20451;-75
2021/08/11 09:10:21;;;;;;;7.53;6.90;;;22.50;1.00;;;;;;5085330;28;20426;-75
2021/08/11 09:12:51;;;;;;;6.70;5.90;;;22.60;1.00;;;;;;5084211;28;20494;-72
2021/08/11 09:15:29;;;;;;;6.07;5.50;;;22.50;1.00;;;;;;5082863;28;20456;-74
2021/08/11 09:17:57;;;;;;;6.60;5.93;;;22.60;1.00;;;;;;5084066;28;20477;-74
2021/08/11 09:20:26;;;;;;;6.27;5.67;;;22.60;1.00;;;;;;5091298;28;20452;-73
2021/08/11 09:22:54;;;;;;;6.60;6.00;;;22.60;1.00;;;;;;5085281;28;20480;-73
2021/08/11 09:25:22;;;;;;;7.00;6.40;;;22.40;1.00;;;;;;5082133;28;21248;-74
2021/08/11 09:27:50;;;;;;;6.00;5.40;;;22.20;1.00;;;;;;5093868;28;20635;-73
2021/08/11 09:30:19;;;;;;;6.70;6.10;;;22.50;1.00;;;;;;5089730;28;20402;-74
2021/08/11 09:33:00;;;;;;;6.10;5.50;;;22.90;1.00;;;;;;5090173;28;20538;-73
2021/08/11 09:35:29;;;;;;;6.17;5.50;;;22.90;1.00;;;;;;5093471;28;20419;-74
2021/08/11 09:37:58;;;;;;;6.23;5.67;;;22.90;1.00;;;;;;5087424;28;20411;-75
2021/08/11 09:40:27;;;;;;;7.07;6.30;;;23.00;1.00;;;;;;5090397;28;20467;-75
2021/08/11 09:42:58;;;;;;;8.17;6.80;;;23.10;1.00;;;;;;5089285;28;20416;-75
2021/08/11 09:45:25;;;;;;;7.93;6.83;;;23.30;1.00;;;;;;5090548;28;20483;-72
2021/08/11 09:47:58;;;;;;;5.67;5.17;;;23.90;1.00;;;;;;5088787;28;20509;-74
2021/08/11 09:50:37;;;;;;;6.20;5.60;;;25.30;1.00;;;;;;5083868;28;20724;-75
2021/08/11 09:53:04;;;;;;;6.53;5.93;;;27.00;1.00;;;;;;5065618;28;20409;-73
2021/08/11 09:55:31;;;;;;;7.40;5.87;;;27.50;1.00;;;;;;5063833;28;20425;-75
2021/08/11 09:57:59;;;;;;;6.80;6.10;;;28.30;1.00;;;;;;5084551;28;20412;-75
2021/08/11 10:00:39;;;;;;;7.47;6.37;;;27.80;1.00;;;;;;5068858;28;20414;-74
2021/08/11 10:03:06;;;;;;;6.07;5.40;;;27.70;1.00;;;;;;5079619;28;20442;-73
2021/08/11 10:05:35;;;;;;;5.33;4.70;;;28.50;1.00;;;;;;5083881;28;20464;-74
2021/08/11 10:08:04;;;;;;;5.77;4.17;;;29.40;1.00;;;;;;5082760;28;20415;-76
2021/08/11 10:10:46;;;;;;;6.33;4.27;;;30.00;1.00;;;;;;5088708;28;21373;-73
2021/08/11 10:13:17;;;;;;;4.30;3.90;;;31.00;1.00;;;;;;5086096;28;20415;-73
2021/08/11 10:15:45;;;;;;;5.00;4.40;;;31.60;1.00;;;;;;5085643;28;20455;-75
2021/08/11 10:18:13;;;;;;;5.07;4.57;;;31.80;1.00;;;;;;5083636;28;20434;-76
2021/08/11 10:20:41;;;;;;;4.80;4.40;;;30.60;1.00;;;;;;5077595;28;20450;-73
2021/08/11 10:23:08;;;;;;;5.20;3.87;;;30.70;1.00;;;;;;5072140;28;20446;-74
2021/08/11 10:25:34;;;;;;;4.80;4.40;;;31.50;1.00;;;;;;5065773;28;20461;-76
2021/08/11 10:28:02;;;;;;;4.93;4.37;;;32.40;1.00;;;;;;5067167;28;21209;-74
2021/08/11 10:30:30;;;;;;;6.30;4.50;;;32.70;1.00;;;;;;5065392;28;20494;-73
2021/08/11 10:32:58;;;;;;;4.90;4.50;;;33.30;1.00;;;;;;5066737;28;21697;-75
2021/08/11 10:35:24;;;;;;;5.40;4.90;;;33.30;1.00;;;;;;5066004;28;21716;-74
2021/08/11 10:37:52;;;;;;;5.40;4.30;;;32.70;1.00;;;;;;5069616;28;20505;-72
2021/08/11 10:40:19;;;;;;;5.17;4.50;;;31.40;1.00;;;;;;5066903;28;20925;-73
2021/08/11 10:42:56;;;;;;;4.43;4.03;;;30.90;1.00;;;;;;5069657;28;20414;-73
2021/08/11 10:45:24;;;;;;;4.30;3.90;;;31.60;1.00;;;;;;5065763;28;20475;-73
2021/08/11 10:47:53;;;;;;;3.87;3.30;;;32.70;1.00;;;;;;5062772;28;20890;-73
2021/08/11 10:50:20;;;;;;;4.37;3.40;;;33.60;1.00;;;;;;5067411;28;20458;-74
2021/08/11 10:53:06;;;;;;;6.47;4.00;;;34.10;1.00;;;;;;5062450;28;20535;-74
2021/08/11 10:55:44;;;;;;;4.50;3.83;;;34.30;1.00;;;;;;5068008;28;20981;-75
2021/08/11 10:58:11;;;;;;;4.23;3.50;;;34.70;1.00;;;;;;5067012;28;20793;-76
2021/08/11 11:00:41;;;;;;;5.00;4.50;;;34.80;1.00;;;;;;5066458;28;20427;-75
2021/08/11 11:03:11;;;;;;;4.50;4.10;;;34.40;1.00;;;;;;5067890;28;20446;-75
2021/08/11 11:06:03;;;;;;;5.40;4.20;;;33.10;1.00;;;;;;5063049;28;20585;-75
2021/08/11 11:08:37;;;;;;;4.93;4.53;;;32.30;1.00;;;;;;5062716;28;20482;-75
2021/08/11 11:11:39;;;;;;;5.73;5.00;;;31.90;1.00;;;;;;5044556;28;20451;-75
2021/08/11 11:14:08;;;;;;;4.70;4.30;;;30.70;1.00;;;;;;5061817;28;20489;-75
2021/08/11 11:17:12;;;;;;;6.37;4.87;;;28.90;1.00;;;;;;5063026;28;20441;-76
2021/08/11 11:20:28;;;;;;;4.30;3.90;;;29.40;1.00;;;;;;5064214;28;21840;-76
2021/08/11 11:23:06;;;;;;;4.33;3.70;;;30.90;1.00;;;;;;5065987;28;20462;-76
2021/08/11 11:26:01;;;;;;;5.10;4.00;;;32.10;1.00;;;;;;5062636;28;20444;-75
2021/08/11 11:28:54;;;;;;;4.97;3.70;;;33.40;1.00;;;;;;5070057;28;20950;-76
2021/08/11 11:31:51;;;;;;;4.97;4.40;;;34.70;1.00;;;;;;5072438;28;20990;-74
2021/08/11 11:34:26;;;;;;;4.63;4.20;;;34.20;1.00;;;;;;4990278;28;20461;-75
2021/08/11 11:37:23;;;;;;;4.50;4.10;;;32.00;1.00;;;;;;5053566;28;21402;-74
2021/08/11 11:40:15;;;;;;;4.93;4.53;;;29.90;1.00;;;;;;5068976;28;21290;-74
2021/08/11 11:42:43;;;;;;;4.73;3.50;;;31.20;1.00;;;;;;5075410;28;20434;-74
2021/08/11 11:45:12;;;;;;;4.40;4.00;;;32.10;1.00;;;;;;5070903;28;20430;-75
2021/08/11 11:48:10;;;;;;;7.07;6.43;;;31.70;1.00;;;;;;5072822;28;20513;-76
2021/08/11 11:50:47;;;;;;;3.97;3.60;;;32.60;1.00;;;;;;5065175;28;20472;-76
2021/08/11 11:53:30;;;;;;;4.20;3.37;;;34.00;1.00;;;;;;5064228;28;21274;-76
2021/08/11 11:55:59;;;;;;;4.87;3.80;;;35.40;1.00;;;;;;5065383;28;20435;-75
2021/08/11 11:58:27;;;;;;;5.00;3.63;;;36.20;1.00;;;;;;5070915;28;21181;-77
2021/08/11 12:01:04;;;;;;;4.23;3.83;;;36.30;1.00;;;;;;5077572;28;20463;-78
2021/08/11 12:03:35;;;;;;;4.30;3.63;;;36.50;1.00;;;;;;5072096;28;21267;-77
2021/08/11 12:06:02;;;;;;;3.60;3.30;;;37.20;1.00;;;;;;5074530;28;20556;-78
2021/08/11 12:08:29;;;;;;;4.43;4.03;;;36.80;1.00;;;;;;5076016;28;20764;-78
2021/08/11 12:11:06;;;;;;;4.60;4.20;;;36.30;1.00;;;;;;5079255;28;21437;-75
2021/08/11 12:13:44;;;;;;;3.87;3.57;;;37.00;1.00;;;;;;5077660;28;20446;-78
2021/08/11 12:16:13;;;;;;;4.37;4.07;;;36.80;1.00;;;;;;5080533;28;20467;-77
2021/08/11 12:18:41;;;;;;;4.83;4.43;;;36.40;1.00;;;;;;5081109;28;20482;-76
2021/08/11 12:21:09;;;;;;;6.30;4.07;;;36.30;1.00;;;;;;5067640;28;20431;-78
2021/08/11 12:23:36;;;;;;;5.47;4.40;;;36.40;1.00;;;;;;5064644;28;20543;-78
2021/08/11 12:26:07;;;;;;;4.00;3.60;;;37.20;1.00;;;;;;5079290;28;20510;-78
2021/08/11 12:28:36;;;;;;;4.37;3.73;;;37.40;1.00;;;;;;5085890;28;20395;-77
2021/08/11 12:31:05;;;;;;;4.70;4.17;;;37.20;1.00;;;;;;5093232;28;20414;-78
2021/08/11 12:33:35;;;;;;;5.90;5.30;;;35.80;1.00;;;;;;5082019;28;20446;-76
2021/08/11 12:36:03;;;;;;;4.57;4.13;;;33.80;1.00;;;;;;5061454;28;20459;-74
2021/08/11 12:38:34;;;;;;;4.97;4.47;;;32.40;1.00;;;;;;5068873;28;20463;-75
2021/08/11 12:41:18;;;;;;;4.80;4.30;;;31.90;1.00;;;;;;5074014;28;20482;-76
2021/08/11 12:43:45;;;;;;;5.50;5.00;;;32.50;1.00;;;;;;5066853;28;21516;-77
2021/08/11 12:46:12;;;;;;;6.20;5.70;;;31.50;1.00;;;;;;5079195;28;20430;-77
2021/08/11 12:48:40;;;;;;;5.57;4.90;;;30.10;1.00;;;;;;5079436;28;20564;-76
2021/08/11 12:51:08;;;;;;;6.53;5.93;;;29.00;1.00;;;;;;5080294;28;20556;-77
2021/08/11 12:53:38;;;;;;;6.30;4.40;;;29.90;1.00;;;;;;5084758;28;20421;-77
2021/08/11 12:56:13;;;;;;;4.83;4.33;;;31.30;1.00;;;;;;5071837;28;21226;-77
2021/08/11 12:59:02;;;;;;;5.83;5.23;;;31.60;1.00;;;;;;5085668;28;20475;-78
2021/08/11 13:01:37;;;;;;;5.00;4.43;;;30.90;1.00;;;;;;5072068;28;20450;-79